LAN67 SBGR-SBRJ
Flight info
| Callsign | LAN67 |
|---|---|
| Flight time | 0h 37m |
| Altitude | 23000 |
| Route | NIBRU UZ171 KEVUN |
| Aircraft | A320/M-SDE3FGHIRWY/LB1 |
Departure
| Time | 2026-05-06 20:40 |
|---|---|
| Airport | São Paulo/Guarulhos–Governor André Franco Montoro International Airport (SBGR) |
Arrival
| Time | 2026-05-06 21:17 |
|---|---|
| Airport | Santos Dumont Airport (SBRJ) |
| Time | Latitude | Longitude | Altitude | Speed | Heading |
|---|---|---|---|---|---|
| 2026-05-06 20:21 | -23.42941 | -46.48228 | 2452 ft | 0 kts | 322° |
| 2026-05-06 20:32 | -23.42954 | -46.48217 | 2460 ft | 4 kts | 322° |
| 2026-05-06 20:32 | -23.42975 | -46.48199 | 2459 ft | 4 kts | 322° |
| 2026-05-06 20:32 | -23.42996 | -46.48180 | 2460 ft | 4 kts | 316° |
| 2026-05-06 20:32 | -23.43014 | -46.48159 | 2463 ft | 4 kts | 302° |
| 2026-05-06 20:33 | -23.43026 | -46.48133 | 2463 ft | 4 kts | 281° |
| 2026-05-06 20:33 | -23.43025 | -46.48108 | 2462 ft | 1 kts | 243° |
| 2026-05-06 20:33 | -23.43023 | -46.48103 | 2462 ft | 0 kts | 242° |
| 2026-05-06 20:37 | -23.43032 | -46.48117 | 2460 ft | 8 kts | 231° |
| 2026-05-06 20:37 | -23.43104 | -46.48133 | 2458 ft | 11 kts | 191° |
| 2026-05-06 20:37 | -23.43135 | -46.48200 | 2457 ft | 11 kts | 254° |
| 2026-05-06 20:38 | -23.43157 | -46.48281 | 2459 ft | 13 kts | 253° |
| 2026-05-06 20:38 | -23.43182 | -46.48360 | 2458 ft | 17 kts | 235° |
| 2026-05-06 20:38 | -23.43313 | -46.48361 | 2459 ft | 14 kts | 164° |
| 2026-05-06 20:38 | -23.43380 | -46.48337 | 2457 ft | 16 kts | 153° |
| 2026-05-06 20:39 | -23.43400 | -46.48223 | 2453 ft | 17 kts | 74° |
| 2026-05-06 20:39 | -23.43395 | -46.48208 | 2459 ft | 0 kts | 73° |
| 2026-05-06 20:39 | -23.43333 | -46.47985 | 2456 ft | 73 kts | 73° |
| 2026-05-06 20:39 | -23.43114 | -46.47166 | 2452 ft | 147 kts | 73° |
| 2026-05-06 20:40 | -23.42770 | -46.45907 | 2737 ft | 183 kts | 74° |
| 2026-05-06 20:40 | -23.42409 | -46.44560 | 3535 ft | 191 kts | 75° |
| 2026-05-06 20:40 | -23.42020 | -46.43194 | 4208 ft | 190 kts | 73° |
| 2026-05-06 20:40 | -23.41596 | -46.41756 | 4445 ft | 210 kts | 73° |
| 2026-05-06 20:41 | -23.41121 | -46.40149 | 4667 ft | 236 kts | 73° |
| 2026-05-06 20:41 | -23.40595 | -46.38363 | 5046 ft | 259 kts | 72° |
| 2026-05-06 20:41 | -23.40190 | -46.36420 | 5694 ft | 268 kts | 88° |
| 2026-05-06 20:41 | -23.40525 | -46.34408 | 6444 ft | 275 kts | 108° |
| 2026-05-06 20:42 | -23.41169 | -46.32437 | 7219 ft | 278 kts | 108° |
| 2026-05-06 20:42 | -23.41830 | -46.30444 | 7979 ft | 282 kts | 108° |
| 2026-05-06 20:42 | -23.42502 | -46.28425 | 8742 ft | 286 kts | 108° |
| 2026-05-06 20:42 | -23.43181 | -46.26373 | 9478 ft | 291 kts | 108° |
| 2026-05-06 20:43 | -23.43840 | -46.24269 | 10020 ft | 296 kts | 102° |
| 2026-05-06 20:43 | -23.44241 | -46.22044 | 10473 ft | 305 kts | 99° |
| 2026-05-06 20:43 | -23.44642 | -46.19682 | 10637 ft | 329 kts | 99° |
| 2026-05-06 20:43 | -23.45073 | -46.17169 | 10955 ft | 343 kts | 99° |
| 2026-05-06 20:44 | -23.45521 | -46.14592 | 11554 ft | 348 kts | 100° |
| 2026-05-06 20:44 | -23.45974 | -46.11997 | 12216 ft | 351 kts | 100° |
| 2026-05-06 20:44 | -23.46432 | -46.09381 | 12866 ft | 353 kts | 100° |
| 2026-05-06 20:44 | -23.46891 | -46.06751 | 13106 ft | 354 kts | 100° |
| 2026-05-06 20:45 | -23.47348 | -46.04120 | 13160 ft | 354 kts | 100° |
| 2026-05-06 20:45 | -23.47803 | -46.01488 | 13160 ft | 353 kts | 100° |
| 2026-05-06 20:45 | -23.48255 | -45.98860 | 13164 ft | 353 kts | 100° |
| 2026-05-06 20:45 | -23.48706 | -45.96236 | 13165 ft | 353 kts | 100° |
| 2026-05-06 20:46 | -23.49157 | -45.93612 | 13162 ft | 352 kts | 100° |
| 2026-05-06 20:46 | -23.49613 | -45.90978 | 13409 ft | 356 kts | 101° |
| 2026-05-06 20:46 | -23.50078 | -45.88324 | 14073 ft | 357 kts | 101° |
| 2026-05-06 20:46 | -23.50548 | -45.85661 | 14624 ft | 360 kts | 101° |
| 2026-05-06 20:47 | -23.51023 | -45.82975 | 15170 ft | 363 kts | 101° |
| 2026-05-06 20:47 | -23.51500 | -45.80259 | 15691 ft | 366 kts | 102° |
| 2026-05-06 20:47 | -23.51979 | -45.77523 | 16223 ft | 370 kts | 102° |
| 2026-05-06 20:47 | -23.52462 | -45.74763 | 16748 ft | 373 kts | 102° |
| 2026-05-06 20:48 | -23.52950 | -45.71978 | 17263 ft | 376 kts | 102° |
| 2026-05-06 20:48 | -23.53443 | -45.69158 | 17774 ft | 380 kts | 102° |
| 2026-05-06 20:48 | -23.53941 | -45.66318 | 18302 ft | 384 kts | 102° |
| 2026-05-06 20:48 | -23.54438 | -45.63488 | 18783 ft | 387 kts | 103° |
| 2026-05-06 20:49 | -23.54949 | -45.60559 | 19263 ft | 390 kts | 102° |
| 2026-05-06 20:49 | -23.55449 | -45.57679 | 19736 ft | 394 kts | 103° |
| 2026-05-06 20:49 | -23.55958 | -45.54734 | 20227 ft | 397 kts | 103° |
| 2026-05-06 20:49 | -23.56479 | -45.51722 | 20734 ft | 401 kts | 103° |
| 2026-05-06 20:50 | -23.56919 | -45.48710 | 21220 ft | 406 kts | 96° |
| 2026-05-06 20:50 | -23.56912 | -45.45618 | 21690 ft | 412 kts | 86° |
| 2026-05-06 20:50 | -23.56408 | -45.42565 | 22152 ft | 417 kts | 78° |
| 2026-05-06 20:50 | -23.55737 | -45.39478 | 22623 ft | 421 kts | 78° |
| 2026-05-06 20:51 | -23.55066 | -45.36356 | 23043 ft | 424 kts | 78° |
| 2026-05-06 20:51 | -23.54400 | -45.33223 | 23144 ft | 426 kts | 79° |
| 2026-05-06 20:51 | -23.53735 | -45.30065 | 23159 ft | 428 kts | 79° |
| 2026-05-06 20:51 | -23.53069 | -45.26900 | 23156 ft | 428 kts | 79° |
| 2026-05-06 20:52 | -23.52404 | -45.23742 | 23158 ft | 428 kts | 78° |
| 2026-05-06 20:52 | -23.51736 | -45.20579 | 23159 ft | 428 kts | 78° |
| 2026-05-06 20:52 | -23.51067 | -45.17422 | 23157 ft | 428 kts | 78° |
| 2026-05-06 20:52 | -23.50395 | -45.14260 | 23156 ft | 428 kts | 78° |
| 2026-05-06 20:53 | -23.49719 | -45.11101 | 23157 ft | 428 kts | 78° |
| 2026-05-06 20:53 | -23.49039 | -45.07946 | 23156 ft | 428 kts | 78° |
| 2026-05-06 20:53 | -23.48362 | -45.04796 | 23157 ft | 428 kts | 78° |
| 2026-05-06 20:53 | -23.47685 | -45.01638 | 23157 ft | 428 kts | 78° |
| 2026-05-06 20:54 | -23.47009 | -44.98486 | 23155 ft | 428 kts | 78° |
| 2026-05-06 20:54 | -23.46332 | -44.95334 | 23155 ft | 428 kts | 78° |
| 2026-05-06 20:54 | -23.45647 | -44.92179 | 23158 ft | 428 kts | 78° |
| 2026-05-06 20:54 | -23.44952 | -44.89033 | 23154 ft | 428 kts | 78° |
| 2026-05-06 20:55 | -23.44247 | -44.85885 | 23158 ft | 428 kts | 77° |
| 2026-05-06 20:55 | -23.43542 | -44.82739 | 23150 ft | 428 kts | 78° |
| 2026-05-06 20:55 | -23.42840 | -44.79596 | 23154 ft | 428 kts | 78° |
| 2026-05-06 20:55 | -23.42139 | -44.76453 | 23155 ft | 428 kts | 78° |
| 2026-05-06 20:56 | -23.41439 | -44.73306 | 23158 ft | 427 kts | 78° |
| 2026-05-06 20:56 | -23.40739 | -44.70165 | 23166 ft | 427 kts | 78° |
| 2026-05-06 20:56 | -23.40040 | -44.67028 | 23167 ft | 426 kts | 78° |
| 2026-05-06 20:56 | -23.39343 | -44.63898 | 23168 ft | 426 kts | 78° |
| 2026-05-06 20:57 | -23.38644 | -44.60766 | 23165 ft | 425 kts | 78° |
| 2026-05-06 20:57 | -23.37946 | -44.57640 | 23165 ft | 425 kts | 77° |
| 2026-05-06 20:57 | -23.37248 | -44.54543 | 22981 ft | 415 kts | 77° |
| 2026-05-06 20:57 | -23.36576 | -44.51573 | 22341 ft | 405 kts | 77° |
| 2026-05-06 20:58 | -23.35914 | -44.48631 | 21714 ft | 398 kts | 78° |
| 2026-05-06 20:58 | -23.35260 | -44.45725 | 20972 ft | 393 kts | 78° |
| 2026-05-06 20:58 | -23.34595 | -44.42863 | 20188 ft | 388 kts | 74° |
| 2026-05-06 20:58 | -23.33599 | -44.40162 | 19420 ft | 383 kts | 66° |
| 2026-05-06 20:59 | -23.32474 | -44.37550 | 18659 ft | 378 kts | 66° |
| 2026-05-06 20:59 | -23.31366 | -44.34982 | 17845 ft | 372 kts | 66° |
| 2026-05-06 20:59 | -23.30275 | -44.32452 | 17010 ft | 367 kts | 66° |
| 2026-05-06 20:59 | -23.29200 | -44.29949 | 16205 ft | 362 kts | 66° |
| 2026-05-06 21:00 | -23.28142 | -44.27483 | 15404 ft | 358 kts | 66° |
| 2026-05-06 21:00 | -23.27097 | -44.25049 | 14638 ft | 353 kts | 65° |
| 2026-05-06 21:00 | -23.26064 | -44.22647 | 13876 ft | 349 kts | 65° |
| 2026-05-06 21:00 | -23.25041 | -44.20272 | 13033 ft | 344 kts | 65° |
| 2026-05-06 21:01 | -23.24033 | -44.17934 | 12209 ft | 340 kts | 65° |
| 2026-05-06 21:01 | -23.23037 | -44.15623 | 11408 ft | 335 kts | 65° |
| 2026-05-06 21:01 | -23.22052 | -44.13340 | 10612 ft | 331 kts | 64° |
| 2026-05-06 21:01 | -23.21079 | -44.11092 | 9842 ft | 327 kts | 64° |
| 2026-05-06 21:02 | -23.20119 | -44.08873 | 9072 ft | 322 kts | 64° |
| 2026-05-06 21:02 | -23.19179 | -44.06727 | 8765 ft | 303 kts | 64° |
| 2026-05-06 21:02 | -23.18280 | -44.04748 | 8712 ft | 286 kts | 63° |
| 2026-05-06 21:02 | -23.17390 | -44.02829 | 8664 ft | 283 kts | 63° |
| 2026-05-06 21:03 | -23.16500 | -44.00920 | 8610 ft | 283 kts | 63° |
| 2026-05-06 21:03 | -23.15617 | -43.99009 | 8549 ft | 282 kts | 64° |
| 2026-05-06 21:03 | -23.14770 | -43.97085 | 8505 ft | 282 kts | 64° |
| 2026-05-06 21:03 | -23.13942 | -43.95149 | 8449 ft | 282 kts | 65° |
| 2026-05-06 21:04 | -23.13120 | -43.93212 | 8400 ft | 282 kts | 65° |
| 2026-05-06 21:04 | -23.12298 | -43.91270 | 8235 ft | 282 kts | 65° |
| 2026-05-06 21:04 | -23.11480 | -43.89342 | 8094 ft | 281 kts | 65° |
| 2026-05-06 21:04 | -23.10659 | -43.87411 | 8053 ft | 281 kts | 65° |
| 2026-05-06 21:05 | -23.09841 | -43.85488 | 8049 ft | 280 kts | 65° |
| 2026-05-06 21:05 | -23.09019 | -43.83566 | 8049 ft | 280 kts | 65° |
| 2026-05-06 21:05 | -23.08195 | -43.81649 | 8056 ft | 280 kts | 65° |
| 2026-05-06 21:05 | -23.07373 | -43.79729 | 8043 ft | 280 kts | 65° |
| 2026-05-06 21:06 | -23.06554 | -43.77814 | 8039 ft | 280 kts | 65° |
| 2026-05-06 21:06 | -23.05734 | -43.75895 | 8041 ft | 280 kts | 65° |
| 2026-05-06 21:06 | -23.04914 | -43.73978 | 8047 ft | 280 kts | 65° |
| 2026-05-06 21:06 | -23.04093 | -43.72059 | 8037 ft | 280 kts | 65° |
| 2026-05-06 21:07 | -23.03270 | -43.70139 | 7892 ft | 280 kts | 65° |
| 2026-05-06 21:07 | -23.02455 | -43.68253 | 7672 ft | 269 kts | 64° |
| 2026-05-06 21:07 | -23.01673 | -43.66466 | 7457 ft | 258 kts | 64° |
| 2026-05-06 21:07 | -23.00914 | -43.64740 | 7240 ft | 255 kts | 64° |
| 2026-05-06 21:08 | -23.00152 | -43.63005 | 7094 ft | 254 kts | 64° |
| 2026-05-06 21:08 | -22.99390 | -43.61271 | 7032 ft | 254 kts | 64° |
| 2026-05-06 21:08 | -22.98626 | -43.59538 | 7002 ft | 256 kts | 64° |
| 2026-05-06 21:08 | -22.97863 | -43.57807 | 6808 ft | 252 kts | 64° |
| 2026-05-06 21:09 | -22.97114 | -43.56109 | 6623 ft | 247 kts | 64° |
| 2026-05-06 21:09 | -22.96379 | -43.54446 | 6429 ft | 241 kts | 64° |
| 2026-05-06 21:09 | -22.95666 | -43.52831 | 6218 ft | 231 kts | 64° |
| 2026-05-06 21:09 | -22.94994 | -43.51306 | 6082 ft | 220 kts | 64° |
| 2026-05-06 21:10 | -22.94345 | -43.49814 | 6042 ft | 218 kts | 65° |
| 2026-05-06 21:10 | -22.93708 | -43.48312 | 5816 ft | 217 kts | 64° |
| 2026-05-06 21:10 | -22.93082 | -43.46827 | 5547 ft | 216 kts | 65° |
| 2026-05-06 21:10 | -22.92457 | -43.45343 | 5191 ft | 219 kts | 65° |
| 2026-05-06 21:11 | -22.91821 | -43.43840 | 4862 ft | 216 kts | 65° |
| 2026-05-06 21:11 | -22.91199 | -43.42365 | 4837 ft | 215 kts | 64° |
| 2026-05-06 21:11 | -22.90578 | -43.40891 | 4840 ft | 211 kts | 65° |
| 2026-05-06 21:11 | -22.89991 | -43.39502 | 4827 ft | 196 kts | 65° |
| 2026-05-06 21:12 | -22.89429 | -43.38174 | 4834 ft | 192 kts | 65° |
| 2026-05-06 21:12 | -22.88870 | -43.36859 | 4799 ft | 194 kts | 64° |
| 2026-05-06 21:12 | -22.88287 | -43.35484 | 4254 ft | 209 kts | 67° |
| 2026-05-06 21:12 | -22.87764 | -43.33948 | 3673 ft | 224 kts | 70° |
| 2026-05-06 21:13 | -22.87246 | -43.32336 | 3143 ft | 226 kts | 70° |
| 2026-05-06 21:13 | -22.86755 | -43.30788 | 3030 ft | 208 kts | 71° |
| 2026-05-06 21:13 | -22.86310 | -43.29390 | 3061 ft | 182 kts | 70° |
| 2026-05-06 21:13 | -22.85919 | -43.28160 | 3024 ft | 165 kts | 70° |
| 2026-05-06 21:14 | -22.85573 | -43.27043 | 3042 ft | 149 kts | 74° |
| 2026-05-06 21:14 | -22.85526 | -43.25944 | 3036 ft | 147 kts | 97° |
| 2026-05-06 21:14 | -22.85738 | -43.24861 | 3034 ft | 146 kts | 96° |
| 2026-05-06 21:14 | -22.85886 | -43.23767 | 2962 ft | 148 kts | 96° |
| 2026-05-06 21:15 | -22.86031 | -43.22674 | 2793 ft | 146 kts | 96° |
| 2026-05-06 21:15 | -22.86173 | -43.21592 | 2439 ft | 148 kts | 96° |
| 2026-05-06 21:15 | -22.86310 | -43.20387 | 1373 ft | 175 kts | 96° |
| 2026-05-06 21:15 | -22.86556 | -43.19141 | 985 ft | 159 kts | 111° |
| 2026-05-06 21:16 | -22.87097 | -43.18182 | 767 ft | 146 kts | 128° |
| 2026-05-06 21:16 | -22.87731 | -43.17350 | 602 ft | 140 kts | 139° |
| 2026-05-06 21:16 | -22.88526 | -43.16779 | 369 ft | 136 kts | 154° |
| 2026-05-06 21:16 | -22.89400 | -43.16390 | 223 ft | 135 kts | 175° |
| 2026-05-06 21:17 | -22.90325 | -43.16333 | 67 ft | 132 kts | 176° |
| 2026-05-06 21:17 | -22.91087 | -43.16282 | 17 ft | 54 kts | 176° |
| 2026-05-06 21:17 | -22.91279 | -43.16272 | 15 ft | 21 kts | 180° |
| 2026-05-06 21:17 | -22.91337 | -43.16365 | 13 ft | 18 kts | 268° |
| 2026-05-06 21:18 | -22.91344 | -43.16421 | 13 ft | 5 kts | 250° |
| 2026-05-06 21:18 | -22.91353 | -43.16460 | 15 ft | 6 kts | 261° |
| 2026-05-06 21:18 | -22.91339 | -43.16498 | 15 ft | 5 kts | 317° |
| 2026-05-06 21:18 | -22.91307 | -43.16510 | 16 ft | 4 kts | 355° |
| 2026-05-06 21:19 | -22.91298 | -43.16511 | 16 ft | 5 kts | 350° |
| 2026-05-06 21:19 | -22.91285 | -43.16520 | 17 ft | 1 kts | 310° |
| 2026-05-06 21:19 | -22.91281 | -43.16547 | 18 ft | 4 kts | 270° |
| 2026-05-06 21:19 | -22.91281 | -43.16558 | 18 ft | 1 kts | 269° |
| 2026-05-06 21:20 | -22.91281 | -43.16562 | 18 ft | 0 kts | 269° |
| 2026-05-06 21:22 | -22.91281 | -43.16569 | 19 ft | 0 kts | 269° |